sensor_id;sensor_type;location;lat;lon;timestamp;temperature;humidity
64855;DHT22;51321;50.428;8.378;2024-03-02T00:00:51;3.20;99.90
64855;DHT22;51321;50.428;8.378;2024-03-02T00:03:32;3.20;99.90
64855;DHT22;51321;50.428;8.378;2024-03-02T00:06:13;3.10;99.90
64855;DHT22;51321;50.428;8.378;2024-03-02T00:08:57;3.10;99.90
64855;DHT22;51321;50.428;8.378;2024-03-02T00:11:38;3.10;99.90
64855;DHT22;51321;50.428;8.378;2024-03-02T00:14:21;3.10;99.90
64855;DHT22;51321;50.428;8.378;2024-03-02T00:17:03;3.10;99.90
64855;DHT22;51321;50.428;8.378;2024-03-02T00:19:44;3.10;99.90
64855;DHT22;51321;50.428;8.378;2024-03-02T00:22:25;3.00;99.90
64855;DHT22;51321;50.428;8.378;2024-03-02T00:25:07;2.90;99.90
64855;DHT22;51321;50.428;8.378;2024-03-02T00:27:49;2.90;99.90
64855;DHT22;51321;50.428;8.378;2024-03-02T00:33:38;3.00;99.90
64855;DHT22;51321;50.428;8.378;2024-03-02T00:36:24;2.90;99.90
64855;DHT22;51321;50.428;8.378;2024-03-02T00:39:07;2.90;99.90
64855;DHT22;51321;50.428;8.378;2024-03-02T00:41:48;2.80;99.90
64855;DHT22;51321;50.428;8.378;2024-03-02T00:44:29;2.70;99.90
64855;DHT22;51321;50.428;8.378;2024-03-02T00:47:16;2.70;99.90
64855;DHT22;51321;50.428;8.378;2024-03-02T00:49:57;2.60;99.90
64855;DHT22;51321;50.428;8.378;2024-03-02T00:52:38;2.70;99.90
64855;DHT22;51321;50.428;8.378;2024-03-02T00:55:18;2.70;99.90
64855;DHT22;51321;50.428;8.378;2024-03-02T00:57:59;2.70;99.90
64855;DHT22;51321;50.428;8.378;2024-03-02T01:00:40;2.70;99.90
64855;DHT22;51321;50.428;8.378;2024-03-02T01:03:21;2.60;99.90
64855;DHT22;51321;50.428;8.378;2024-03-02T01:06:03;2.70;99.90
64855;DHT22;51321;50.428;8.378;2024-03-02T01:08:44;2.70;99.90
64855;DHT22;51321;50.428;8.378;2024-03-02T01:11:25;2.70;99.90
64855;DHT22;51321;50.428;8.378;2024-03-02T01:14:05;2.60;99.90
64855;DHT22;51321;50.428;8.378;2024-03-02T01:16:46;2.70;99.90
64855;DHT22;51321;50.428;8.378;2024-03-02T01:19:27;2.70;99.90
64855;DHT22;51321;50.428;8.378;2024-03-02T01:22:08;2.80;99.90
64855;DHT22;51321;50.428;8.378;2024-03-02T01:24:49;2.90;99.90
64855;DHT22;51321;50.428;8.378;2024-03-02T01:27:30;3.00;99.90
64855;DHT22;51321;50.428;8.378;2024-03-02T01:30:11;3.10;99.90
64855;DHT22;51321;50.428;8.378;2024-03-02T01:32:52;3.10;99.90
64855;DHT22;51321;50.428;8.378;2024-03-02T01:35:34;3.20;99.90
64855;DHT22;51321;50.428;8.378;2024-03-02T01:38:15;3.20;99.90
64855;DHT22;51321;50.428;8.378;2024-03-02T01:40:55;3.10;99.90
64855;DHT22;51321;50.428;8.378;2024-03-02T01:43:36;3.10;99.90
64855;DHT22;51321;50.428;8.378;2024-03-02T01:46:16;3.20;99.90
64855;DHT22;51321;50.428;8.378;2024-03-02T01:48:57;3.10;99.90
64855;DHT22;51321;50.428;8.378;2024-03-02T01:51:39;3.00;99.90
64855;DHT22;51321;50.428;8.378;2024-03-02T01:54:20;2.90;99.90
64855;DHT22;51321;50.428;8.378;2024-03-02T01:57:00;2.80;99.90
64855;DHT22;51321;50.428;8.378;2024-03-02T01:59:41;2.90;99.90
64855;DHT22;51321;50.428;8.378;2024-03-02T02:02:22;2.90;99.90
64855;DHT22;51321;50.428;8.378;2024-03-02T02:05:03;2.80;99.90
64855;DHT22;51321;50.428;8.378;2024-03-02T02:07:45;2.90;99.90
64855;DHT22;51321;50.428;8.378;2024-03-02T02:10:26;2.80;99.90
64855;DHT22;51321;50.428;8.378;2024-03-02T02:13:06;2.70;99.90
64855;DHT22;51321;50.428;8.378;2024-03-02T02:15:47;2.70;99.90
64855;DHT22;51321;50.428;8.378;2024-03-02T02:18:28;2.70;99.90
64855;DHT22;51321;50.428;8.378;2024-03-02T02:21:08;2.70;99.90
64855;DHT22;51321;50.428;8.378;2024-03-02T02:23:50;2.70;99.90
64855;DHT22;51321;50.428;8.378;2024-03-02T02:26:31;2.60;99.90
64855;DHT22;51321;50.428;8.378;2024-03-02T02:29:11;2.60;99.90
64855;DHT22;51321;50.428;8.378;2024-03-02T02:31:52;2.60;99.90
64855;DHT22;51321;50.428;8.378;2024-03-02T02:34:33;2.40;99.90
64855;DHT22;51321;50.428;8.378;2024-03-02T02:37:13;2.50;99.90
64855;DHT22;51321;50.428;8.378;2024-03-02T02:39:55;2.50;99.90
64855;DHT22;51321;50.428;8.378;2024-03-02T02:42:37;2.40;99.90
64855;DHT22;51321;50.428;8.378;2024-03-02T02:45:17;2.50;99.90
64855;DHT22;51321;50.428;8.378;2024-03-02T02:47:58;2.40;99.90
64855;DHT22;51321;50.428;8.378;2024-03-02T02:50:41;2.40;99.90
64855;DHT22;51321;50.428;8.378;2024-03-02T02:53:22;2.30;99.90
64855;DHT22;51321;50.428;8.378;2024-03-02T02:56:04;2.40;99.90
64855;DHT22;51321;50.428;8.378;2024-03-02T02:58:45;2.40;99.90
64855;DHT22;51321;50.428;8.378;2024-03-02T03:01:25;2.50;99.90
64855;DHT22;51321;50.428;8.378;2024-03-02T03:04:06;2.50;99.90
64855;DHT22;51321;50.428;8.378;2024-03-02T03:06:46;2.50;99.90
64855;DHT22;51321;50.428;8.378;2024-03-02T03:09:27;2.50;99.90
64855;DHT22;51321;50.428;8.378;2024-03-02T03:12:08;2.30;99.90
64855;DHT22;51321;50.428;8.378;2024-03-02T03:14:49;2.40;99.90
64855;DHT22;51321;50.428;8.378;2024-03-02T03:17:29;2.40;99.90
64855;DHT22;51321;50.428;8.378;2024-03-02T03:20:10;2.40;99.90
64855;DHT22;51321;50.428;8.378;2024-03-02T03:22:51;2.40;99.90
64855;DHT22;51321;50.428;8.378;2024-03-02T03:25:32;2.40;99.90
64855;DHT22;51321;50.428;8.378;2024-03-02T03:28:13;2.40;99.90
64855;DHT22;51321;50.428;8.378;2024-03-02T03:30:54;2.30;99.90
64855;DHT22;51321;50.428;8.378;2024-03-02T03:33:35;2.30;99.90
64855;DHT22;51321;50.428;8.378;2024-03-02T03:36:15;2.30;99.90
64855;DHT22;51321;50.428;8.378;2024-03-02T03:38:56;2.30;99.90
64855;DHT22;51321;50.428;8.378;2024-03-02T03:41:37;2.30;99.90
64855;DHT22;51321;50.428;8.378;2024-03-02T03:44:19;2.20;99.90
64855;DHT22;51321;50.428;8.378;2024-03-02T03:47:00;2.30;99.90
64855;DHT22;51321;50.428;8.378;2024-03-02T03:49:41;2.20;99.90
64855;DHT22;51321;50.428;8.378;2024-03-02T03:52:22;2.30;99.90
64855;DHT22;51321;50.428;8.378;2024-03-02T03:55:02;2.30;99.90
64855;DHT22;51321;50.428;8.378;2024-03-02T03:57:44;2.30;99.90
64855;DHT22;51321;50.428;8.378;2024-03-02T04:00:26;2.20;99.90
64855;DHT22;51321;50.428;8.378;2024-03-02T04:03:06;2.10;99.90
64855;DHT22;51321;50.428;8.378;2024-03-02T04:05:47;2.00;99.90
64855;DHT22;51321;50.428;8.378;2024-03-02T04:08:27;2.00;99.90
64855;DHT22;51321;50.428;8.378;2024-03-02T04:11:08;1.90;99.90
64855;DHT22;51321;50.428;8.378;2024-03-02T04:13:48;2.00;99.90
64855;DHT22;51321;50.428;8.378;2024-03-02T04:16:30;2.10;99.90
64855;DHT22;51321;50.428;8.378;2024-03-02T04:19:10;2.00;99.90
64855;DHT22;51321;50.428;8.378;2024-03-02T04:21:51;1.90;99.90
64855;DHT22;51321;50.428;8.378;2024-03-02T04:24:31;1.80;99.90
64855;DHT22;51321;50.428;8.378;2024-03-02T04:27:12;1.90;99.90
64855;DHT22;51321;50.428;8.378;2024-03-02T04:29:52;1.80;99.90
64855;DHT22;51321;50.428;8.378;2024-03-02T04:32:34;1.80;99.90
64855;DHT22;51321;50.428;8.378;2024-03-02T04:35:15;1.90;99.90
64855;DHT22;51321;50.428;8.378;2024-03-02T04:37:55;1.90;99.90
64855;DHT22;51321;50.428;8.378;2024-03-02T04:40:36;1.90;99.90
64855;DHT22;51321;50.428;8.378;2024-03-02T04:43:17;2.00;99.90
64855;DHT22;51321;50.428;8.378;2024-03-02T04:45:58;2.00;99.90
64855;DHT22;51321;50.428;8.378;2024-03-02T04:48:40;2.00;99.90
64855;DHT22;51321;50.428;8.378;2024-03-02T04:51:20;2.00;99.90
64855;DHT22;51321;50.428;8.378;2024-03-02T04:54:01;1.90;99.90
64855;DHT22;51321;50.428;8.378;2024-03-02T04:56:41;1.90;99.90
64855;DHT22;51321;50.428;8.378;2024-03-02T04:59:28;1.80;99.90
64855;DHT22;51321;50.428;8.378;2024-03-02T05:02:10;1.70;99.90
64855;DHT22;51321;50.428;8.378;2024-03-02T05:04:54;1.60;99.90
64855;DHT22;51321;50.428;8.378;2024-03-02T05:07:34;1.60;99.90
64855;DHT22;51321;50.428;8.378;2024-03-02T05:10:15;1.70;99.90
64855;DHT22;51321;50.428;8.378;2024-03-02T05:12:55;1.60;99.90
64855;DHT22;51321;50.428;8.378;2024-03-02T05:15:38;1.80;99.90
64855;DHT22;51321;50.428;8.378;2024-03-02T05:18:18;1.70;99.90
64855;DHT22;51321;50.428;8.378;2024-03-02T05:21:00;1.70;99.90
64855;DHT22;51321;50.428;8.378;2024-03-02T05:23:40;1.60;99.90
64855;DHT22;51321;50.428;8.378;2024-03-02T05:26:20;1.60;99.90
64855;DHT22;51321;50.428;8.378;2024-03-02T05:29:10;1.60;99.90
64855;DHT22;51321;50.428;8.378;2024-03-02T05:31:51;1.60;99.90
64855;DHT22;51321;50.428;8.378;2024-03-02T05:34:31;1.60;99.90
64855;DHT22;51321;50.428;8.378;2024-03-02T05:37:15;1.50;99.90
64855;DHT22;51321;50.428;8.378;2024-03-02T05:39:55;1.40;99.90
64855;DHT22;51321;50.428;8.378;2024-03-02T05:42:35;1.50;99.90
64855;DHT22;51321;50.428;8.378;2024-03-02T05:45:16;1.50;99.90
64855;DHT22;51321;50.428;8.378;2024-03-02T05:47:57;1.60;99.90
64855;DHT22;51321;50.428;8.378;2024-03-02T05:50:38;1.70;99.90
64855;DHT22;51321;50.428;8.378;2024-03-02T05:53:20;1.60;99.90
64855;DHT22;51321;50.428;8.378;2024-03-02T05:56:00;1.60;99.90
64855;DHT22;51321;50.428;8.378;2024-03-02T05:58:41;1.70;99.90
64855;DHT22;51321;50.428;8.378;2024-03-02T06:01:36;1.70;99.90
64855;DHT22;51321;50.428;8.378;2024-03-02T06:04:17;1.70;99.90
64855;DHT22;51321;50.428;8.378;2024-03-02T06:06:58;1.60;99.90
64855;DHT22;51321;50.428;8.378;2024-03-02T06:09:41;1.50;99.90
64855;DHT22;51321;50.428;8.378;2024-03-02T06:12:21;1.50;99.90
64855;DHT22;51321;50.428;8.378;2024-03-02T06:15:01;1.50;99.90
64855;DHT22;51321;50.428;8.378;2024-03-02T06:17:43;1.50;99.90
64855;DHT22;51321;50.428;8.378;2024-03-02T06:20:23;1.40;99.90
64855;DHT22;51321;50.428;8.378;2024-03-02T06:23:06;1.50;99.90
64855;DHT22;51321;50.428;8.378;2024-03-02T06:25:47;1.60;99.90
64855;DHT22;51321;50.428;8.378;2024-03-02T06:28:28;1.80;99.90
64855;DHT22;51321;50.428;8.378;2024-03-02T06:31:09;1.90;99.90
64855;DHT22;51321;50.428;8.378;2024-03-02T06:33:49;1.90;99.90
64855;DHT22;51321;50.428;8.378;2024-03-02T06:36:29;1.90;99.90
64855;DHT22;51321;50.428;8.378;2024-03-02T06:39:10;1.90;99.90
64855;DHT22;51321;50.428;8.378;2024-03-02T06:41:53;1.90;99.90
64855;DHT22;51321;50.428;8.378;2024-03-02T06:44:34;2.00;99.90
64855;DHT22;51321;50.428;8.378;2024-03-02T06:47:14;2.00;99.90
64855;DHT22;51321;50.428;8.378;2024-03-02T06:49:56;2.00;99.90
64855;DHT22;51321;50.428;8.378;2024-03-02T06:52:37;2.10;99.90
64855;DHT22;51321;50.428;8.378;2024-03-02T06:55:17;2.30;99.90
64855;DHT22;51321;50.428;8.378;2024-03-02T06:57:59;2.30;99.90
64855;DHT22;51321;50.428;8.378;2024-03-02T07:00:40;2.30;99.90
64855;DHT22;51321;50.428;8.378;2024-03-02T07:03:20;2.40;99.90
64855;DHT22;51321;50.428;8.378;2024-03-02T07:06:01;2.40;99.90
64855;DHT22;51321;50.428;8.378;2024-03-02T07:08:42;2.40;99.90
64855;DHT22;51321;50.428;8.378;2024-03-02T07:11:23;2.50;99.90
64855;DHT22;51321;50.428;8.378;2024-03-02T07:14:04;2.50;99.90
64855;DHT22;51321;50.428;8.378;2024-03-02T07:16:45;2.60;99.90
64855;DHT22;51321;50.428;8.378;2024-03-02T07:19:25;2.70;99.90
64855;DHT22;51321;50.428;8.378;2024-03-02T07:22:07;2.70;99.90
64855;DHT22;51321;50.428;8.378;2024-03-02T07:24:48;2.80;99.90
64855;DHT22;51321;50.428;8.378;2024-03-02T07:27:29;3.00;99.90
64855;DHT22;51321;50.428;8.378;2024-03-02T07:30:14;3.20;99.90
64855;DHT22;51321;50.428;8.378;2024-03-02T07:32:55;3.40;99.90
64855;DHT22;51321;50.428;8.378;2024-03-02T07:35:36;3.50;99.90
64855;DHT22;51321;50.428;8.378;2024-03-02T07:38:17;3.60;99.90
64855;DHT22;51321;50.428;8.378;2024-03-02T07:40:58;3.60;99.90
64855;DHT22;51321;50.428;8.378;2024-03-02T07:43:39;3.80;99.90
64855;DHT22;51321;50.428;8.378;2024-03-02T07:46:21;4.10;99.90
64855;DHT22;51321;50.428;8.378;2024-03-02T07:49:02;4.20;99.90
64855;DHT22;51321;50.428;8.378;2024-03-02T07:51:43;4.20;99.90
64855;DHT22;51321;50.428;8.378;2024-03-02T07:54:23;4.20;99.90
64855;DHT22;51321;50.428;8.378;2024-03-02T07:57:03;4.30;99.90
64855;DHT22;51321;50.428;8.378;2024-03-02T07:59:44;4.40;99.90
64855;DHT22;51321;50.428;8.378;2024-03-02T08:02:26;4.50;99.90
64855;DHT22;51321;50.428;8.378;2024-03-02T08:05:07;4.50;99.90
64855;DHT22;51321;50.428;8.378;2024-03-02T08:07:47;4.50;99.90
64855;DHT22;51321;50.428;8.378;2024-03-02T08:10:31;4.70;99.90
64855;DHT22;51321;50.428;8.378;2024-03-02T08:13:12;4.80;99.90
64855;DHT22;51321;50.428;8.378;2024-03-02T08:15:53;4.90;99.90
64855;DHT22;51321;50.428;8.378;2024-03-02T08:18:35;5.00;99.90
64855;DHT22;51321;50.428;8.378;2024-03-02T08:21:16;5.10;99.90
64855;DHT22;51321;50.428;8.378;2024-03-02T08:23:57;5.20;99.90
64855;DHT22;51321;50.428;8.378;2024-03-02T08:26:37;5.20;99.90
64855;DHT22;51321;50.428;8.378;2024-03-02T08:29:18;5.20;99.90
64855;DHT22;51321;50.428;8.378;2024-03-02T08:31:58;5.30;99.90
64855;DHT22;51321;50.428;8.378;2024-03-02T08:34:40;5.30;99.90
64855;DHT22;51321;50.428;8.378;2024-03-02T08:37:21;5.40;99.90
64855;DHT22;51321;50.428;8.378;2024-03-02T08:40:01;5.50;99.90
64855;DHT22;51321;50.428;8.378;2024-03-02T08:42:43;5.60;99.90
64855;DHT22;51321;50.428;8.378;2024-03-02T08:45:24;5.70;99.90
64855;DHT22;51321;50.428;8.378;2024-03-02T08:48:06;6.00;99.90
64855;DHT22;51321;50.428;8.378;2024-03-02T08:50:51;6.30;99.90
64855;DHT22;51321;50.428;8.378;2024-03-02T08:53:31;6.50;99.90
64855;DHT22;51321;50.428;8.378;2024-03-02T08:56:12;6.90;99.90
64855;DHT22;51321;50.428;8.378;2024-03-02T08:58:53;7.30;99.90
64855;DHT22;51321;50.428;8.378;2024-03-02T09:01:33;7.70;99.90
64855;DHT22;51321;50.428;8.378;2024-03-02T09:04:14;8.10;99.90
64855;DHT22;51321;50.428;8.378;2024-03-02T09:06:56;8.50;99.90
64855;DHT22;51321;50.428;8.378;2024-03-02T09:09:36;9.00;99.90
64855;DHT22;51321;50.428;8.378;2024-03-02T09:12:17;9.30;99.90
64855;DHT22;51321;50.428;8.378;2024-03-02T09:14:58;9.60;99.90
64855;DHT22;51321;50.428;8.378;2024-03-02T09:17:39;9.70;99.90
64855;DHT22;51321;50.428;8.378;2024-03-02T09:20:19;10.00;99.90
64855;DHT22;51321;50.428;8.378;2024-03-02T09:23:01;10.30;99.90
64855;DHT22;51321;50.428;8.378;2024-03-02T09:25:41;10.80;99.90
64855;DHT22;51321;50.428;8.378;2024-03-02T09:28:22;11.10;99.90
64855;DHT22;51321;50.428;8.378;2024-03-02T09:31:03;11.30;99.90
64855;DHT22;51321;50.428;8.378;2024-03-02T09:33:43;11.70;99.90
64855;DHT22;51321;50.428;8.378;2024-03-02T09:36:23;12.00;99.90
64855;DHT22;51321;50.428;8.378;2024-03-02T09:39:06;12.10;99.90
64855;DHT22;51321;50.428;8.378;2024-03-02T09:41:49;12.30;99.90
64855;DHT22;51321;50.428;8.378;2024-03-02T09:44:30;12.80;99.90
64855;DHT22;51321;50.428;8.378;2024-03-02T09:47:10;12.80;99.90
64855;DHT22;51321;50.428;8.378;2024-03-02T09:49:51;12.70;99.90
64855;DHT22;51321;50.428;8.378;2024-03-02T09:52:32;12.50;99.90
64855;DHT22;51321;50.428;8.378;2024-03-02T09:55:15;12.40;99.90
64855;DHT22;51321;50.428;8.378;2024-03-02T09:57:56;12.20;99.90
64855;DHT22;51321;50.428;8.378;2024-03-02T10:00:36;12.10;99.90
64855;DHT22;51321;50.428;8.378;2024-03-02T10:03:18;12.10;99.90
64855;DHT22;51321;50.428;8.378;2024-03-02T10:06:18;12.10;99.90
64855;DHT22;51321;50.428;8.378;2024-03-02T10:08:58;12.10;99.90
64855;DHT22;51321;50.428;8.378;2024-03-02T10:11:40;12.00;99.90
64855;DHT22;51321;50.428;8.378;2024-03-02T10:14:21;12.10;99.90
64855;DHT22;51321;50.428;8.378;2024-03-02T10:17:06;12.20;99.90
64855;DHT22;51321;50.428;8.378;2024-03-02T10:19:46;12.10;99.90
64855;DHT22;51321;50.428;8.378;2024-03-02T10:22:27;12.10;99.90
64855;DHT22;51321;50.428;8.378;2024-03-02T10:25:07;12.20;99.90
64855;DHT22;51321;50.428;8.378;2024-03-02T10:28:09;12.20;99.90
64855;DHT22;51321;50.428;8.378;2024-03-02T10:30:50;11.90;99.90
64855;DHT22;51321;50.428;8.378;2024-03-02T10:33:31;11.80;99.90
64855;DHT22;51321;50.428;8.378;2024-03-02T10:36:12;11.90;99.90
64855;DHT22;51321;50.428;8.378;2024-03-02T10:38:52;12.00;99.90
64855;DHT22;51321;50.428;8.378;2024-03-02T10:41:35;12.10;99.90
64855;DHT22;51321;50.428;8.378;2024-03-02T10:44:18;12.20;99.90
64855;DHT22;51321;50.428;8.378;2024-03-02T10:47:01;12.10;99.90
64855;DHT22;51321;50.428;8.378;2024-03-02T10:49:43;12.20;99.90
64855;DHT22;51321;50.428;8.378;2024-03-02T10:52:24;12.30;99.90
64855;DHT22;51321;50.428;8.378;2024-03-02T10:55:06;12.30;99.90
64855;DHT22;51321;50.428;8.378;2024-03-02T10:57:51;12.40;99.90
64855;DHT22;51321;50.428;8.378;2024-03-02T11:00:34;12.50;99.90
64855;DHT22;51321;50.428;8.378;2024-03-02T11:03:17;12.70;99.80
64855;DHT22;51321;50.428;8.378;2024-03-02T11:05:59;12.80;99.30
64855;DHT22;51321;50.428;8.378;2024-03-02T11:08:41;12.60;99.70
64855;DHT22;51321;50.428;8.378;2024-03-02T11:11:29;12.70;99.40
64855;DHT22;51321;50.428;8.378;2024-03-02T11:14:13;12.50;99.40
64855;DHT22;51321;50.428;8.378;2024-03-02T11:16:56;12.40;99.60
64855;DHT22;51321;50.428;8.378;2024-03-02T11:19:38;12.60;99.70
64855;DHT22;51321;50.428;8.378;2024-03-02T11:22:20;12.70;99.20
64855;DHT22;51321;50.428;8.378;2024-03-02T11:25:01;12.80;99.00
64855;DHT22;51321;50.428;8.378;2024-03-02T11:28:01;12.90;99.40
64855;DHT22;51321;50.428;8.378;2024-03-02T11:30:51;13.00;98.90
64855;DHT22;51321;50.428;8.378;2024-03-02T11:33:33;12.80;99.00
64855;DHT22;51321;50.428;8.378;2024-03-02T11:36:15;12.90;99.50
64855;DHT22;51321;50.428;8.378;2024-03-02T11:38:57;12.90;99.00
64855;DHT22;51321;50.428;8.378;2024-03-02T11:41:37;12.90;99.20
64855;DHT22;51321;50.428;8.378;2024-03-02T11:44:18;13.00;98.80
64855;DHT22;51321;50.428;8.378;2024-03-02T11:46:59;13.10;98.70
64855;DHT22;51321;50.428;8.378;2024-03-02T11:49:42;13.20;98.50
64855;DHT22;51321;50.428;8.378;2024-03-02T11:52:25;13.20;97.90
64855;DHT22;51321;50.428;8.378;2024-03-02T11:55:07;13.30;98.10
64855;DHT22;51321;50.428;8.378;2024-03-02T11:57:49;13.30;98.50
64855;DHT22;51321;50.428;8.378;2024-03-02T12:00:30;13.30;98.90
64855;DHT22;51321;50.428;8.378;2024-03-02T12:03:13;13.40;98.30
64855;DHT22;51321;50.428;8.378;2024-03-02T12:05:55;13.40;98.70
64855;DHT22;51321;50.428;8.378;2024-03-02T12:08:36;13.40;98.40
64855;DHT22;51321;50.428;8.378;2024-03-02T12:11:17;13.40;97.90
64855;DHT22;51321;50.428;8.378;2024-03-02T12:13:58;13.50;97.90
64855;DHT22;51321;50.428;8.378;2024-03-02T12:16:38;13.40;97.30
64855;DHT22;51321;50.428;8.378;2024-03-02T12:19:18;13.50;98.30
64855;DHT22;51321;50.428;8.378;2024-03-02T12:22:01;13.60;98.50
64855;DHT22;51321;50.428;8.378;2024-03-02T12:24:42;13.80;97.40
64855;DHT22;51321;50.428;8.378;2024-03-02T12:30:22;14.50;96.50
64855;DHT22;51321;50.428;8.378;2024-03-02T12:33:03;14.60;95.80
64855;DHT22;51321;50.428;8.378;2024-03-02T12:35:44;14.70;96.20
64855;DHT22;51321;50.428;8.378;2024-03-02T12:38:26;14.80;95.70
64855;DHT22;51321;50.428;8.378;2024-03-02T12:41:08;14.90;95.90
64855;DHT22;51321;50.428;8.378;2024-03-02T12:43:48;14.90;95.60
64855;DHT22;51321;50.428;8.378;2024-03-02T12:46:29;14.90;95.70
64855;DHT22;51321;50.428;8.378;2024-03-02T12:49:11;14.60;95.90
64855;DHT22;51321;50.428;8.378;2024-03-02T12:51:51;14.30;96.10
64855;DHT22;51321;50.428;8.378;2024-03-02T12:54:34;14.30;96.20
64855;DHT22;51321;50.428;8.378;2024-03-02T12:57:17;14.30;96.10
64855;DHT22;51321;50.428;8.378;2024-03-02T12:59:58;14.40;96.10
64855;DHT22;51321;50.428;8.378;2024-03-02T13:02:40;14.30;95.80
64855;DHT22;51321;50.428;8.378;2024-03-02T13:05:21;14.40;96.10
64855;DHT22;51321;50.428;8.378;2024-03-02T13:08:02;14.40;96.20
64855;DHT22;51321;50.428;8.378;2024-03-02T13:10:45;14.50;96.60
64855;DHT22;51321;50.428;8.378;2024-03-02T13:13:25;14.70;95.60
64855;DHT22;51321;50.428;8.378;2024-03-02T13:16:08;14.70;95.60
64855;DHT22;51321;50.428;8.378;2024-03-02T13:18:50;14.60;95.50
64855;DHT22;51321;50.428;8.378;2024-03-02T13:21:30;14.40;95.80
64855;DHT22;51321;50.428;8.378;2024-03-02T13:24:11;14.30;95.60
64855;DHT22;51321;50.428;8.378;2024-03-02T13:26:53;14.40;95.10
64855;DHT22;51321;50.428;8.378;2024-03-02T13:29:35;14.40;95.30
64855;DHT22;51321;50.428;8.378;2024-03-02T13:32:17;14.20;95.00
64855;DHT22;51321;50.428;8.378;2024-03-02T13:35:00;14.00;95.70
64855;DHT22;51321;50.428;8.378;2024-03-02T13:37:42;13.90;95.50
64855;DHT22;51321;50.428;8.378;2024-03-02T13:40:22;13.90;96.00
64855;DHT22;51321;50.428;8.378;2024-03-02T13:43:05;14.00;95.70
64855;DHT22;51321;50.428;8.378;2024-03-02T13:45:45;14.10;95.30
64855;DHT22;51321;50.428;8.378;2024-03-02T13:48:26;13.90;95.20
64855;DHT22;51321;50.428;8.378;2024-03-02T13:51:07;13.80;95.10
64855;DHT22;51321;50.428;8.378;2024-03-02T13:53:47;13.70;95.10
64855;DHT22;51321;50.428;8.378;2024-03-02T13:56:29;13.70;95.60
64855;DHT22;51321;50.428;8.378;2024-03-02T13:59:11;13.70;95.40
64855;DHT22;51321;50.428;8.378;2024-03-02T14:01:51;13.70;95.10
64855;DHT22;51321;50.428;8.378;2024-03-02T14:04:33;13.70;95.00
64855;DHT22;51321;50.428;8.378;2024-03-02T14:07:14;13.80;95.00
64855;DHT22;51321;50.428;8.378;2024-03-02T14:09:54;13.90;94.60
64855;DHT22;51321;50.428;8.378;2024-03-02T14:12:36;13.90;94.70
64855;DHT22;51321;50.428;8.378;2024-03-02T14:15:46;13.90;95.00
64855;DHT22;51321;50.428;8.378;2024-03-02T14:18:28;13.90;94.60
64855;DHT22;51321;50.428;8.378;2024-03-02T14:21:08;13.90;94.90
64855;DHT22;51321;50.428;8.378;2024-03-02T14:23:49;13.80;95.40
64855;DHT22;51321;50.428;8.378;2024-03-02T14:26:30;13.70;95.40
64855;DHT22;51321;50.428;8.378;2024-03-02T14:29:12;13.70;95.40
64855;DHT22;51321;50.428;8.378;2024-03-02T14:31:54;13.40;95.70
64855;DHT22;51321;50.428;8.378;2024-03-02T14:34:34;13.20;96.10
64855;DHT22;51321;50.428;8.378;2024-03-02T14:37:15;13.10;96.30
64855;DHT22;51321;50.428;8.378;2024-03-02T14:39:56;13.00;96.30
64855;DHT22;51321;50.428;8.378;2024-03-02T14:42:36;12.90;96.30
64855;DHT22;51321;50.428;8.378;2024-03-02T14:45:16;12.90;96.60
64855;DHT22;51321;50.428;8.378;2024-03-02T14:47:58;12.90;96.40
64855;DHT22;51321;50.428;8.378;2024-03-02T14:50:40;12.90;96.50
64855;DHT22;51321;50.428;8.378;2024-03-02T14:53:20;12.80;96.90
64855;DHT22;51321;50.428;8.378;2024-03-02T14:56:00;12.80;97.00
64855;DHT22;51321;50.428;8.378;2024-03-02T14:58:41;12.70;97.50
64855;DHT22;51321;50.428;8.378;2024-03-02T15:01:22;12.70;97.30
64855;DHT22;51321;50.428;8.378;2024-03-02T15:04:05;12.70;97.40
64855;DHT22;51321;50.428;8.378;2024-03-02T15:06:45;12.70;97.10
64855;DHT22;51321;50.428;8.378;2024-03-02T15:09:26;12.70;97.30
64855;DHT22;51321;50.428;8.378;2024-03-02T15:12:07;12.60;97.60
64855;DHT22;51321;50.428;8.378;2024-03-02T15:14:49;12.50;97.70
64855;DHT22;51321;50.428;8.378;2024-03-02T15:17:29;12.50;97.60
64855;DHT22;51321;50.428;8.378;2024-03-02T15:20:11;12.50;97.70
64855;DHT22;51321;50.428;8.378;2024-03-02T15:22:52;12.50;97.50
64855;DHT22;51321;50.428;8.378;2024-03-02T15:25:32;12.60;97.60
64855;DHT22;51321;50.428;8.378;2024-03-02T15:28:13;12.60;97.60
64855;DHT22;51321;50.428;8.378;2024-03-02T15:30:53;12.60;97.90
64855;DHT22;51321;50.428;8.378;2024-03-02T15:33:34;12.50;97.60
64855;DHT22;51321;50.428;8.378;2024-03-02T15:36:16;12.50;97.30
64855;DHT22;51321;50.428;8.378;2024-03-02T15:38:56;12.50;97.90
64855;DHT22;51321;50.428;8.378;2024-03-02T15:41:37;12.60;98.10
64855;DHT22;51321;50.428;8.378;2024-03-02T15:44:19;12.40;99.20
64855;DHT22;51321;50.428;8.378;2024-03-02T15:47:00;12.30;99.50
64855;DHT22;51321;50.428;8.378;2024-03-02T15:49:40;12.30;99.90
64855;DHT22;51321;50.428;8.378;2024-03-02T15:52:22;12.20;99.90
64855;DHT22;51321;50.428;8.378;2024-03-02T15:55:03;12.20;99.90
64855;DHT22;51321;50.428;8.378;2024-03-02T15:57:45;12.10;99.90
64855;DHT22;51321;50.428;8.378;2024-03-02T16:00:26;12.00;99.90
64855;DHT22;51321;50.428;8.378;2024-03-02T16:03:06;11.90;99.90
64855;DHT22;51321;50.428;8.378;2024-03-02T16:05:46;11.90;99.90
64855;DHT22;51321;50.428;8.378;2024-03-02T16:08:28;11.90;99.90
64855;DHT22;51321;50.428;8.378;2024-03-02T16:11:09;11.90;99.90
64855;DHT22;51321;50.428;8.378;2024-03-02T16:13:49;11.70;99.90
64855;DHT22;51321;50.428;8.378;2024-03-02T16:16:30;11.70;99.90
64855;DHT22;51321;50.428;8.378;2024-03-02T16:19:10;11.70;99.90
64855;DHT22;51321;50.428;8.378;2024-03-02T16:21:51;11.60;99.90
64855;DHT22;51321;50.428;8.378;2024-03-02T16:24:33;11.50;99.90
64855;DHT22;51321;50.428;8.378;2024-03-02T16:27:13;11.40;99.90
64855;DHT22;51321;50.428;8.378;2024-03-02T16:29:54;11.40;99.90
64855;DHT22;51321;50.428;8.378;2024-03-02T16:32:37;11.30;99.90
64855;DHT22;51321;50.428;8.378;2024-03-02T16:35:17;11.20;99.90
64855;DHT22;51321;50.428;8.378;2024-03-02T16:37:58;11.20;99.90
64855;DHT22;51321;50.428;8.378;2024-03-02T16:40:40;11.10;99.90
64855;DHT22;51321;50.428;8.378;2024-03-02T16:43:20;11.00;99.90
64855;DHT22;51321;50.428;8.378;2024-03-02T16:46:01;10.80;99.90
64855;DHT22;51321;50.428;8.378;2024-03-02T16:48:43;10.80;99.90
64855;DHT22;51321;50.428;8.378;2024-03-02T16:51:23;10.60;99.90
64855;DHT22;51321;50.428;8.378;2024-03-02T16:54:04;10.50;99.90
64855;DHT22;51321;50.428;8.378;2024-03-02T16:56:46;10.40;99.90
64855;DHT22;51321;50.428;8.378;2024-03-02T16:59:26;10.20;99.90
64855;DHT22;51321;50.428;8.378;2024-03-02T17:02:07;10.10;99.90
64855;DHT22;51321;50.428;8.378;2024-03-02T17:04:47;10.00;99.90
64855;DHT22;51321;50.428;8.378;2024-03-02T17:07:27;9.90;99.90
64855;DHT22;51321;50.428;8.378;2024-03-02T17:10:09;9.80;99.90
64855;DHT22;51321;50.428;8.378;2024-03-02T17:12:51;9.70;99.90
64855;DHT22;51321;50.428;8.378;2024-03-02T17:15:34;9.50;99.90